Time;durP1;ratioP1;P1;durP2;ratioP2;P2;SDS_P1;SDS_P2;PMS_P1;PMS_P2;Temp;Humidity;BMP_temperature;BMP_pressure;BME280_temperature;BME280_humidity;BME280_pressure;Samples;Min_cycle;Max_cycle;Signal;HPM_P1;HPM_P2
2022/06/15 00:00:40;;;;;;;2.67;1.93;;;;;;;;;;5020637;28;20203;-77
2022/06/15 00:03:09;;;;;;;5.40;2.80;;;;;;;;;;5021043;28;20269;-77
2022/06/15 00:05:38;;;;;;;7.03;2.43;;;;;;;;;;5016615;28;20203;-78
2022/06/15 00:08:05;;;;;;;5.17;2.77;;;;;;;;;;5021330;28;20299;-77
2022/06/15 00:10:32;;;;;;;6.40;2.73;;;;;;;;;;5019929;28;20250;-78
2022/06/15 00:13:00;;;;;;;8.47;2.90;;;;;;;;;;5021357;28;20727;-78
2022/06/15 00:15:27;;;;;;;6.47;2.57;;;;;;;;;;5019044;28;20212;-77
2022/06/15 00:17:54;;;;;;;5.07;3.10;;;;;;;;;;5019829;28;20210;-78
2022/06/15 00:20:21;;;;;;;4.77;2.53;;;;;;;;;;5016480;28;20247;-78
2022/06/15 00:22:50;;;;;;;6.60;3.10;;;;;;;;;;5016010;28;20226;-78
2022/06/15 00:25:17;;;;;;;5.73;2.60;;;;;;;;;;5014718;28;20212;-78
2022/06/15 00:27:44;;;;;;;6.50;2.77;;;;;;;;;;5014719;28;20299;-78
2022/06/15 00:30:12;;;;;;;4.17;2.33;;;;;;;;;;5016666;28;20695;-78
2022/06/15 00:32:39;;;;;;;6.03;3.03;;;;;;;;;;5016561;28;20279;-77
2022/06/15 00:35:07;;;;;;;5.93;2.90;;;;;;;;;;5016639;28;20275;-77
2022/06/15 00:37:36;;;;;;;8.30;2.90;;;;;;;;;;5018779;28;20220;-78
2022/06/15 00:40:06;;;;;;;5.30;2.70;;;;;;;;;;5014376;28;20622;-78
2022/06/15 00:42:34;;;;;;;8.43;2.80;;;;;;;;;;5013618;28;20226;-78
2022/06/15 00:45:01;;;;;;;5.27;2.90;;;;;;;;;;5017573;28;20494;-78
2022/06/15 00:47:30;;;;;;;4.70;2.50;;;;;;;;;;5015363;28;20215;-78
2022/06/15 00:50:00;;;;;;;12.37;2.80;;;;;;;;;;5016768;28;20214;-78
2022/06/15 00:52:32;;;;;;;6.33;2.90;;;;;;;;;;5017830;28;20204;-78
2022/06/15 00:55:00;;;;;;;6.37;3.03;;;;;;;;;;5018868;28;20196;-78
2022/06/15 00:57:29;;;;;;;6.37;2.77;;;;;;;;;;5021856;28;20215;-78
2022/06/15 00:59:57;;;;;;;6.53;2.67;;;;;;;;;;5020924;28;20223;-78
2022/06/15 01:02:24;;;;;;;10.83;2.90;;;;;;;;;;5020549;28;20317;-78
2022/06/15 01:04:55;;;;;;;5.67;3.07;;;;;;;;;;5018416;28;20306;-77
2022/06/15 01:07:32;;;;;;;5.43;3.00;;;;;;;;;;5017515;28;20670;-77
2022/06/15 01:10:03;;;;;;;7.43;3.20;;;;;;;;;;5017812;28;20203;-77
2022/06/15 01:12:35;;;;;;;6.63;2.90;;;;;;;;;;5018050;28;20760;-78
2022/06/15 01:15:13;;;;;;;6.17;3.17;;;;;;;;;;5020863;28;20673;-79
2022/06/15 01:17:47;;;;;;;16.80;3.50;;;;;;;;;;5023420;28;20286;-79
2022/06/15 01:20:24;;;;;;;7.53;3.10;;;;;;;;;;5022376;28;20575;-79
2022/06/15 01:23:02;;;;;;;7.10;3.17;;;;;;;;;;5025003;28;20376;-79
2022/06/15 01:25:36;;;;;;;5.97;3.33;;;;;;;;;;5021257;28;20294;-78
2022/06/15 01:28:24;;;;;;;7.70;3.27;;;;;;;;;;5023296;28;20203;-80
2022/06/15 01:30:55;;;;;;;6.17;2.97;;;;;;;;;;4996877;28;20262;-78
2022/06/15 01:33:27;;;;;;;7.00;3.20;;;;;;;;;;5023538;28;20299;-78
2022/06/15 01:35:58;;;;;;;9.73;3.00;;;;;;;;;;5025260;28;20208;-79
2022/06/15 01:38:32;;;;;;;8.73;3.37;;;;;;;;;;5024749;28;20200;-79
2022/06/15 01:41:03;;;;;;;7.30;2.57;;;;;;;;;;5023185;28;20256;-79
2022/06/15 01:43:33;;;;;;;6.60;3.20;;;;;;;;;;5024279;28;20684;-79
2022/06/15 01:46:03;;;;;;;8.03;3.73;;;;;;;;;;5023321;28;20232;-79
2022/06/15 01:48:31;;;;;;;5.50;3.23;;;;;;;;;;5024022;28;20211;-79
2022/06/15 01:51:01;;;;;;;9.07;3.80;;;;;;;;;;5024811;28;20269;-80
2022/06/15 01:53:32;;;;;;;5.67;3.07;;;;;;;;;;5022535;28;20225;-79
2022/06/15 01:56:03;;;;;;;6.33;3.50;;;;;;;;;;5021387;28;20234;-79
2022/06/15 01:58:32;;;;;;;5.27;3.13;;;;;;;;;;5023082;28;20199;-79
2022/06/15 02:01:01;;;;;;;5.07;3.60;;;;;;;;;;5025113;28;20208;-79
2022/06/15 02:03:33;;;;;;;10.00;3.43;;;;;;;;;;5023135;28;20238;-79
2022/06/15 02:06:03;;;;;;;5.03;3.17;;;;;;;;;;5020727;28;20204;-79
2022/06/15 02:08:33;;;;;;;5.63;3.33;;;;;;;;;;5022498;28;20847;-79
2022/06/15 02:11:05;;;;;;;7.67;3.50;;;;;;;;;;5022428;28;20239;-78
2022/06/15 02:13:37;;;;;;;7.10;3.83;;;;;;;;;;5021717;28;20212;-79
2022/06/15 02:16:06;;;;;;;6.20;3.57;;;;;;;;;;5025920;28;20207;-79
2022/06/15 02:18:36;;;;;;;8.50;3.30;;;;;;;;;;5021005;28;20212;-79
2022/06/15 02:21:05;;;;;;;12.77;3.70;;;;;;;;;;5022619;28;20726;-79
2022/06/15 02:23:34;;;;;;;6.67;4.00;;;;;;;;;;5023558;28;20238;-79
2022/06/15 02:26:02;;;;;;;7.83;3.77;;;;;;;;;;5025814;28;20231;-79
2022/06/15 02:28:31;;;;;;;12.40;4.10;;;;;;;;;;5022519;28;20928;-79
2022/06/15 02:30:58;;;;;;;8.43;3.57;;;;;;;;;;5023757;28;20204;-79
2022/06/15 02:33:26;;;;;;;5.13;3.50;;;;;;;;;;5022080;28;20589;-79
2022/06/15 02:35:56;;;;;;;7.83;3.20;;;;;;;;;;5019375;28;20687;-78
2022/06/15 02:38:23;;;;;;;4.43;3.43;;;;;;;;;;5022358;28;20210;-79
2022/06/15 02:40:50;;;;;;;5.87;3.90;;;;;;;;;;5026120;28;20236;-79
2022/06/15 02:43:19;;;;;;;10.30;3.53;;;;;;;;;;5019776;28;20238;-79
2022/06/15 02:45:48;;;;;;;4.87;3.30;;;;;;;;;;5023722;28;20212;-80
2022/06/15 02:48:16;;;;;;;6.53;3.77;;;;;;;;;;5020989;28;20724;-80
2022/06/15 02:50:47;;;;;;;8.40;3.33;;;;;;;;;;5020607;28;20765;-79
2022/06/15 02:53:17;;;;;;;8.23;3.80;;;;;;;;;;5018963;28;20322;-79
2022/06/15 02:55:46;;;;;;;6.27;3.60;;;;;;;;;;5017703;28;20206;-79
2022/06/15 02:58:15;;;;;;;6.63;3.57;;;;;;;;;;5022968;28;20206;-79
2022/06/15 03:00:42;;;;;;;7.50;3.90;;;;;;;;;;5019359;28;20223;-79
2022/06/15 03:03:09;;;;;;;10.53;4.60;;;;;;;;;;5025361;28;20227;-79
2022/06/15 03:05:36;;;;;;;9.37;4.50;;;;;;;;;;5020827;28;20204;-79
2022/06/15 03:08:04;;;;;;;5.87;3.70;;;;;;;;;;5018065;28;20221;-79
2022/06/15 03:10:32;;;;;;;7.93;4.13;;;;;;;;;;5019260;28;20241;-79
2022/06/15 03:12:59;;;;;;;8.27;4.00;;;;;;;;;;5022749;28;20234;-79
2022/06/15 03:15:26;;;;;;;7.53;3.90;;;;;;;;;;5019200;28;20287;-79
2022/06/15 03:17:54;;;;;;;8.27;4.30;;;;;;;;;;5020347;28;20214;-79
2022/06/15 03:20:21;;;;;;;7.40;3.87;;;;;;;;;;5020770;28;20634;-79
2022/06/15 03:22:49;;;;;;;7.77;4.07;;;;;;;;;;5019893;28;20322;-77
2022/06/15 03:25:17;;;;;;;7.37;3.80;;;;;;;;;;5021090;28;20203;-77
2022/06/15 03:27:45;;;;;;;7.97;4.33;;;;;;;;;;5016208;28;20207;-78
2022/06/15 03:30:13;;;;;;;5.30;3.77;;;;;;;;;;5014999;28;20683;-78
2022/06/15 03:32:40;;;;;;;7.17;4.00;;;;;;;;;;5016167;28;20199;-78
2022/06/15 03:35:08;;;;;;;7.87;3.73;;;;;;;;;;5014865;28;20294;-78
2022/06/15 03:37:35;;;;;;;6.07;3.70;;;;;;;;;;5016224;28;20200;-77
2022/06/15 03:40:02;;;;;;;7.00;3.50;;;;;;;;;;5017442;28;20203;-78
2022/06/15 03:42:29;;;;;;;6.93;4.03;;;;;;;;;;5017498;28;20226;-78
2022/06/15 03:44:58;;;;;;;9.17;3.83;;;;;;;;;;5018028;28;20228;-78
2022/06/15 03:47:25;;;;;;;8.60;4.03;;;;;;;;;;5014698;28;20928;-78
2022/06/15 03:49:53;;;;;;;10.93;3.70;;;;;;;;;;5017900;28;20673;-78
2022/06/15 03:52:21;;;;;;;7.30;3.50;;;;;;;;;;5022869;28;20287;-78
2022/06/15 03:54:49;;;;;;;6.13;3.20;;;;;;;;;;5016970;28;20761;-78
2022/06/15 03:57:17;;;;;;;8.20;3.10;;;;;;;;;;5014835;28;20199;-78
2022/06/15 03:59:44;;;;;;;9.30;3.33;;;;;;;;;;5015960;28;20253;-78
2022/06/15 04:02:13;;;;;;;7.53;3.43;;;;;;;;;;5013798;28;20579;-77
2022/06/15 04:04:40;;;;;;;6.67;3.40;;;;;;;;;;5015055;28;20286;-78
2022/06/15 04:08:34;;;;;;;6.77;2.83;;;;;;;;;;5018106;28;20210;-78
2022/06/15 04:09:55;;;;;;;5.37;2.80;;;;;;;;;;5025574;28;20249;-78
2022/06/15 04:12:22;;;;;;;6.17;3.37;;;;;;;;;;5016582;28;20202;-78
2022/06/15 04:14:49;;;;;;;8.37;2.77;;;;;;;;;;5020174;28;20219;-78
2022/06/15 04:17:19;;;;;;;7.80;2.97;;;;;;;;;;5023954;28;20203;-78
2022/06/15 04:20:31;;;;;;;6.37;2.50;;;;;;;;;;5019750;28;20207;-78
2022/06/15 04:22:35;;;;;;;6.20;2.53;;;;;;;;;;5019722;28;20212;-78
2022/06/15 04:25:02;;;;;;;5.83;2.47;;;;;;;;;;5026166;28;20215;-78
2022/06/15 04:27:30;;;;;;;5.70;2.77;;;;;;;;;;5023275;28;20294;-78
2022/06/15 04:29:57;;;;;;;10.50;2.53;;;;;;;;;;5023986;28;20200;-79
2022/06/15 04:32:25;;;;;;;9.83;2.77;;;;;;;;;;5016500;28;20208;-77
2022/06/15 04:34:52;;;;;;;6.10;2.80;;;;;;;;;;5010287;28;20230;-78
2022/06/15 04:37:20;;;;;;;9.67;2.90;;;;;;;;;;5012426;28;20214;-78
2022/06/15 04:39:47;;;;;;;8.70;2.90;;;;;;;;;;5016262;28;20211;-76
2022/06/15 04:42:14;;;;;;;10.90;2.73;;;;;;;;;;5016230;28;20317;-80
2022/06/15 04:44:42;;;;;;;5.90;2.70;;;;;;;;;;5015833;28;20252;-79
2022/06/15 04:47:10;;;;;;;8.40;2.77;;;;;;;;;;5014694;28;20755;-77
2022/06/15 04:49:38;;;;;;;5.33;2.50;;;;;;;;;;5015262;28;20212;-78
2022/06/15 04:52:06;;;;;;;10.03;2.90;;;;;;;;;;5014326;28;20741;-79
2022/06/15 04:54:33;;;;;;;15.00;2.90;;;;;;;;;;5013665;28;20231;-80
2022/06/15 04:57:00;;;;;;;7.70;2.60;;;;;;;;;;5010131;28;20210;-80
2022/06/15 04:59:27;;;;;;;8.73;2.80;;;;;;;;;;5007899;28;20199;-80
2022/06/15 05:01:55;;;;;;;9.20;2.80;;;;;;;;;;5013464;28;20654;-79
2022/06/15 05:04:22;;;;;;;8.70;3.03;;;;;;;;;;5005761;28;20236;-77
2022/06/15 05:06:51;;;;;;;8.57;2.87;;;;;;;;;;5010869;28;20676;-75
2022/06/15 05:09:18;;;;;;;10.60;3.07;;;;;;;;;;5009216;28;20299;-76
2022/06/15 05:11:45;;;;;;;7.03;3.17;;;;;;;;;;5008276;28;20216;-79
2022/06/15 05:14:12;;;;;;;7.73;3.00;;;;;;;;;;5006751;28;21563;-78
2022/06/15 05:16:41;;;;;;;5.80;2.90;;;;;;;;;;5005420;28;20208;-76
2022/06/15 05:19:08;;;;;;;5.43;2.93;;;;;;;;;;5008188;28;20271;-78
2022/06/15 05:21:39;;;;;;;12.37;3.07;;;;;;;;;;5011325;28;20299;-77
2022/06/15 05:24:08;;;;;;;5.33;3.03;;;;;;;;;;5013412;28;20327;-77
2022/06/15 05:26:35;;;;;;;10.33;3.00;;;;;;;;;;5009390;28;20197;-78
2022/06/15 05:29:02;;;;;;;10.03;2.70;;;;;;;;;;5014589;28;20205;-76
2022/06/15 05:31:30;;;;;;;11.40;2.87;;;;;;;;;;5018742;28;20220;-78
2022/06/15 05:33:58;;;;;;;8.40;2.83;;;;;;;;;;5019801;28;20252;-77
2022/06/15 05:36:27;;;;;;;5.37;2.23;;;;;;;;;;5021597;28;20636;-77
2022/06/15 05:38:54;;;;;;;7.97;3.00;;;;;;;;;;5019048;28;20308;-78
2022/06/15 05:41:23;;;;;;;6.63;2.50;;;;;;;;;;5016738;28;20291;-77
2022/06/15 05:43:50;;;;;;;4.80;2.30;;;;;;;;;;5013080;28;20315;-77
2022/06/15 05:46:21;;;;;;;5.03;2.43;;;;;;;;;;5013185;28;20287;-78
2022/06/15 05:48:49;;;;;;;9.10;2.70;;;;;;;;;;5016957;28;20213;-79
2022/06/15 05:51:16;;;;;;;9.87;2.43;;;;;;;;;;5011773;28;20303;-79
2022/06/15 05:53:43;;;;;;;6.43;2.60;;;;;;;;;;5010212;28;21735;-76
2022/06/15 05:56:10;;;;;;;9.73;2.43;;;;;;;;;;5013722;28;20212;-78
2022/06/15 05:58:39;;;;;;;5.43;2.10;;;;;;;;;;5014563;28;20207;-78
2022/06/15 06:01:09;;;;;;;8.57;2.23;;;;;;;;;;5017514;28;20214;-79
2022/06/15 06:03:36;;;;;;;7.93;2.40;;;;;;;;;;5018362;28;20694;-79
2022/06/15 06:06:04;;;;;;;9.63;2.33;;;;;;;;;;5016625;28;20199;-79
2022/06/15 06:08:32;;;;;;;9.00;2.40;;;;;;;;;;5017320;28;20232;-79
2022/06/15 06:10:59;;;;;;;5.63;2.27;;;;;;;;;;5020258;28;20292;-79
2022/06/15 06:13:26;;;;;;;4.90;2.30;;;;;;;;;;5019224;28;20231;-79
2022/06/15 06:15:55;;;;;;;8.43;2.10;;;;;;;;;;5021442;28;20646;-79
2022/06/15 06:18:22;;;;;;;7.03;2.20;;;;;;;;;;5024582;28;20203;-80
2022/06/15 06:20:50;;;;;;;6.13;1.97;;;;;;;;;;5024104;28;20211;-78
2022/06/15 06:23:17;;;;;;;4.20;1.90;;;;;;;;;;5019856;28;20296;-79
2022/06/15 06:25:46;;;;;;;6.83;2.07;;;;;;;;;;5020009;28;20296;-79
2022/06/15 06:28:21;;;;;;;6.53;1.90;;;;;;;;;;5019818;28;20303;-79
2022/06/15 06:30:48;;;;;;;9.37;2.50;;;;;;;;;;5017713;28;20213;-78
2022/06/15 06:33:16;;;;;;;7.10;1.90;;;;;;;;;;5017339;28;20784;-79
2022/06/15 06:35:44;;;;;;;8.90;1.93;;;;;;;;;;5019399;28;20296;-78
2022/06/15 06:38:11;;;;;;;6.97;1.93;;;;;;;;;;5019955;28;20214;-79
2022/06/15 06:40:39;;;;;;;4.80;1.90;;;;;;;;;;5015547;28;20202;-77
2022/06/15 06:43:06;;;;;;;4.77;1.80;;;;;;;;;;5016269;28;20232;-79
2022/06/15 06:45:33;;;;;;;9.73;2.10;;;;;;;;;;5012828;28;20200;-81
2022/06/15 06:48:00;;;;;;;9.30;2.10;;;;;;;;;;5018731;28;20303;-78
2022/06/15 06:50:29;;;;;;;7.60;2.30;;;;;;;;;;5016689;28;20199;-80
2022/06/15 06:52:56;;;;;;;6.60;2.13;;;;;;;;;;5016797;28;20312;-79
2022/06/15 06:55:26;;;;;;;3.77;1.90;;;;;;;;;;5018629;28;20211;-77
2022/06/15 06:57:55;;;;;;;6.07;2.20;;;;;;;;;;5021190;28;20200;-80
2022/06/15 07:00:22;;;;;;;4.60;2.03;;;;;;;;;;5020261;28;20204;-79
2022/06/15 07:02:49;;;;;;;3.70;1.90;;;;;;;;;;5016973;28;20295;-79
2022/06/15 07:05:16;;;;;;;7.87;2.07;;;;;;;;;;5015822;28;20199;-79
2022/06/15 07:07:45;;;;;;;5.90;2.00;;;;;;;;;;5015257;28;20227;-77
2022/06/15 07:10:14;;;;;;;3.97;1.97;;;;;;;;;;5017815;28;20204;-78
2022/06/15 07:12:42;;;;;;;4.40;1.83;;;;;;;;;;5019790;28;20200;-77
2022/06/15 07:15:10;;;;;;;6.30;1.80;;;;;;;;;;5018411;28;20223;-78
2022/06/15 07:17:38;;;;;;;4.25;1.70;;;;;;;;;;5016633;28;20230;-79
2022/06/15 07:20:06;;;;;;;4.25;1.60;;;;;;;;;;5017409;28;20214;-79
2022/06/15 07:22:33;;;;;;;3.88;1.75;;;;;;;;;;5018354;28;20231;-79
2022/06/15 07:25:02;;;;;;;9.50;1.75;;;;;;;;;;5015388;28;20228;-79
2022/06/15 07:27:29;;;;;;;5.60;1.50;;;;;;;;;;5016782;28;20228;-79
2022/06/15 07:29:58;;;;;;;4.65;1.48;;;;;;;;;;5013354;28;20597;-79
2022/06/15 07:32:25;;;;;;;6.25;1.75;;;;;;;;;;5015357;28;20212;-79
2022/06/15 07:34:52;;;;;;;6.45;1.80;;;;;;;;;;5012099;28;20715;-80
2022/06/15 07:37:19;;;;;;;5.88;1.80;;;;;;;;;;5017123;28;20320;-78
2022/06/15 07:39:47;;;;;;;4.28;1.80;;;;;;;;;;5022852;28;20213;-78
2022/06/15 07:42:16;;;;;;;6.50;1.75;;;;;;;;;;5015239;28;21375;-79
2022/06/15 07:44:43;;;;;;;5.03;1.37;;;;;;;;;;5034057;22;20226;-83
2022/06/15 07:49:57;;;;;;;5.47;1.50;;;;;;;;;;5027503;28;20194;-83
2022/06/15 07:52:24;;;;;;;8.40;1.63;;;;;;;;;;5028730;28;20584;-83
2022/06/15 07:54:52;;;;;;;7.18;1.40;;;;;;;;;;5030363;28;20218;-83
2022/06/15 07:57:21;;;;;;;7.68;1.40;;;;;;;;;;5026679;28;20749;-83
2022/06/15 07:59:49;;;;;;;8.85;1.50;;;;;;;;;;5028424;28;20205;-82
2022/06/15 08:02:16;;;;;;;3.42;1.85;;;;;;;;;;5031896;28;20233;-83
2022/06/15 08:04:43;;;;;;;4.93;1.52;;;;;;;;;;5028537;28;20219;-83
2022/06/15 08:07:13;;;;;;;5.32;1.60;;;;;;;;;;5029548;28;20207;-83
2022/06/15 08:09:40;;;;;;;7.07;1.52;;;;;;;;;;5021367;28;20196;-81
2022/06/15 08:12:14;;;;;;;5.78;1.65;;;;;;;;;;5025844;28;20204;-83
2022/06/15 08:14:44;;;;;;;6.38;1.50;;;;;;;;;;5029774;28;20202;-83
2022/06/15 08:17:12;;;;;;;4.00;1.30;;;;;;;;;;5022044;28;20204;-83
2022/06/15 08:19:42;;;;;;;4.18;1.48;;;;;;;;;;5025146;28;20210;-81
2022/06/15 08:22:10;;;;;;;2.97;1.30;;;;;;;;;;5026112;28;20234;-82
2022/06/15 08:24:37;;;;;;;4.63;1.40;;;;;;;;;;5026332;28;20574;-83
2022/06/15 08:27:07;;;;;;;6.25;1.35;;;;;;;;;;5024579;28;20238;-82
2022/06/15 08:29:35;;;;;;;10.05;1.27;;;;;;;;;;5028087;28;20291;-83
2022/06/15 08:32:04;;;;;;;4.25;1.63;;;;;;;;;;5026171;28;20208;-83
2022/06/15 08:34:33;;;;;;;7.65;1.65;;;;;;;;;;5025653;28;20215;-82
2022/06/15 08:37:00;;;;;;;8.15;1.65;;;;;;;;;;5017806;28;20230;-83
2022/06/15 08:39:27;;;;;;;6.72;1.60;;;;;;;;;;5044439;28;20184;-81
2022/06/15 08:41:56;;;;;;;4.38;1.38;;;;;;;;;;5045738;28;20207;-81
2022/06/15 08:44:31;;;;;;;7.03;1.77;;;;;;;;;;5033403;28;20737;-84
2022/06/15 08:46:59;;;;;;;5.65;1.40;;;;;;;;;;5028041;28;20235;-83
2022/06/15 08:49:39;;;;;;;5.95;1.77;;;;;;;;;;5028847;28;20291;-83
2022/06/15 08:52:10;;;;;;;6.63;1.80;;;;;;;;;;5030751;28;20258;-81
2022/06/15 08:54:39;;;;;;;8.27;1.87;;;;;;;;;;5032602;28;20283;-82
2022/06/15 08:57:09;;;;;;;4.23;1.70;;;;;;;;;;5031337;28;20292;-83
2022/06/15 08:59:40;;;;;;;6.43;1.83;;;;;;;;;;5033386;28;20212;-82
2022/06/15 09:02:12;;;;;;;4.97;1.80;;;;;;;;;;5030458;28;20572;-83
2022/06/15 09:04:42;;;;;;;9.73;2.00;;;;;;;;;;5031431;28;20318;-82
2022/06/15 09:07:17;;;;;;;5.60;1.90;;;;;;;;;;5028742;28;20200;-81
2022/06/15 09:09:54;;;;;;;4.90;2.20;;;;;;;;;;5027587;28;20191;-82
2022/06/15 09:15:20;;;;;;;8.00;2.10;;;;;;;;;;5034217;28;20233;-81
2022/06/15 09:17:49;;;;;;;17.47;2.50;;;;;;;;;;5030304;28;20206;-81
2022/06/15 09:20:20;;;;;;;10.67;2.27;;;;;;;;;;5031011;28;20267;-81
2022/06/15 09:22:50;;;;;;;5.37;1.90;;;;;;;;;;5026647;28;20279;-81
2022/06/15 09:25:18;;;;;;;8.73;2.10;;;;;;;;;;5034917;28;20270;-81
2022/06/15 09:27:48;;;;;;;14.50;2.70;;;;;;;;;;5028044;28;20192;-82
2022/06/15 09:30:18;;;;;;;10.83;2.60;;;;;;;;;;5033835;28;20230;-81
2022/06/15 09:32:51;;;;;;;7.23;1.97;;;;;;;;;;5033126;28;20275;-80
2022/06/15 09:35:24;;;;;;;7.70;2.23;;;;;;;;;;5035971;28;20291;-80
2022/06/15 09:37:53;;;;;;;9.83;2.20;;;;;;;;;;5029385;28;20200;-81
2022/06/15 09:40:20;;;;;;;5.23;2.33;;;;;;;;;;5030823;28;20651;-81
2022/06/15 09:42:52;;;;;;;5.67;2.20;;;;;;;;;;5026327;28;20212;-81
2022/06/15 09:45:21;;;;;;;6.03;2.30;;;;;;;;;;5027727;28;20539;-81
2022/06/15 09:47:54;;;;;;;7.10;2.50;;;;;;;;;;5029761;28;20579;-80
2022/06/15 09:50:29;;;;;;;8.77;2.40;;;;;;;;;;5026339;28;20216;-81
2022/06/15 09:53:03;;;;;;;7.03;2.50;;;;;;;;;;5026281;28;20220;-80
2022/06/15 09:55:35;;;;;;;9.30;2.20;;;;;;;;;;5024367;28;20296;-81
2022/06/15 09:58:02;;;;;;;10.87;2.30;;;;;;;;;;5028696;28;20200;-81
2022/06/15 10:00:30;;;;;;;5.97;2.50;;;;;;;;;;5028358;28;20215;-81
2022/06/15 10:03:01;;;;;;;3.83;2.10;;;;;;;;;;5028397;28;20242;-80
2022/06/15 10:05:32;;;;;;;7.63;2.37;;;;;;;;;;5028951;28;20227;-81
2022/06/15 10:08:02;;;;;;;8.07;2.30;;;;;;;;;;5025543;28;20235;-81
2022/06/15 10:10:31;;;;;;;9.30;2.40;;;;;;;;;;5025311;28;20293;-80
2022/06/15 10:13:02;;;;;;;8.87;2.27;;;;;;;;;;5025985;28;20214;-79
2022/06/15 10:15:32;;;;;;;7.77;2.63;;;;;;;;;;5024581;28;20220;-80
2022/06/15 10:18:02;;;;;;;6.27;2.50;;;;;;;;;;5027898;28;21002;-80
2022/06/15 10:20:33;;;;;;;6.13;2.50;;;;;;;;;;5025112;28;20213;-80
2022/06/15 10:23:02;;;;;;;7.07;2.63;;;;;;;;;;5026604;28;20214;-80
2022/06/15 10:25:32;;;;;;;9.40;2.60;;;;;;;;;;5024912;28;20250;-80
2022/06/15 10:28:07;;;;;;;6.83;2.43;;;;;;;;;;5029087;28;20218;-80
2022/06/15 10:30:34;;;;;;;8.00;2.70;;;;;;;;;;5026807;28;20195;-79
2022/06/15 10:33:04;;;;;;;8.20;2.60;;;;;;;;;;5027688;28;20796;-80
2022/06/15 10:35:33;;;;;;;8.03;2.60;;;;;;;;;;5026732;28;20765;-80
2022/06/15 10:38:04;;;;;;;6.10;2.40;;;;;;;;;;5026903;28;20793;-79
2022/06/15 10:40:33;;;;;;;8.13;2.20;;;;;;;;;;5026436;28;20195;-79
2022/06/15 10:43:02;;;;;;;8.93;2.50;;;;;;;;;;5027761;28;20212;-80
2022/06/15 10:45:33;;;;;;;9.50;2.73;;;;;;;;;;5025607;28;20230;-80
2022/06/15 10:48:01;;;;;;;6.07;2.30;;;;;;;;;;5026558;28;20370;-79
2022/06/15 10:50:30;;;;;;;6.20;2.60;;;;;;;;;;5031345;28;20287;-80
2022/06/15 10:53:00;;;;;;;9.87;2.77;;;;;;;;;;5028917;28;20216;-79
2022/06/15 11:04:04;;;;;;;13.43;2.77;;;;;;;;;;5024061;28;20196;-80
2022/06/15 11:06:37;;;;;;;6.47;2.30;;;;;;;;;;5024791;28;20743;-80
2022/06/15 11:09:07;;;;;;;6.10;2.40;;;;;;;;;;5023844;28;20231;-80
2022/06/15 11:11:36;;;;;;;6.00;2.27;;;;;;;;;;5027322;28;20200;-80
2022/06/15 11:14:05;;;;;;;5.77;2.67;;;;;;;;;;5025066;28;20263;-80
2022/06/15 11:19:21;;;;;;;4.03;2.40;;;;;;;;;;5029623;28;20250;-80
2022/06/15 11:21:50;;;;;;;11.50;2.63;;;;;;;;;;5027719;28;20219;-80
2022/06/15 11:24:32;;;;;;;5.50;2.30;;;;;;;;;;5025882;28;20214;-80
2022/06/15 11:27:03;;;;;;;6.07;2.60;;;;;;;;;;5021028;28;20228;-80
2022/06/15 11:29:36;;;;;;;5.77;2.53;;;;;;;;;;5024231;28;20203;-80
2022/06/15 11:32:04;;;;;;;6.00;2.80;;;;;;;;;;5022779;28;20213;-80
2022/06/15 11:34:34;;;;;;;7.37;2.47;;;;;;;;;;5023495;28;20652;-80
2022/06/15 11:37:05;;;;;;;5.07;2.57;;;;;;;;;;5027926;28;20632;-79
2022/06/15 11:39:35;;;;;;;6.23;2.93;;;;;;;;;;5027468;28;20263;-80
2022/06/15 11:42:02;;;;;;;5.30;2.80;;;;;;;;;;5022586;28;20659;-80
2022/06/15 11:44:30;;;;;;;4.03;2.30;;;;;;;;;;5023723;28;20302;-80
2022/06/15 11:47:02;;;;;;;4.63;2.60;;;;;;;;;;5023101;28;20615;-81
2022/06/15 11:49:35;;;;;;;6.67;2.67;;;;;;;;;;5025087;28;20294;-81
2022/06/15 11:52:09;;;;;;;8.13;2.70;;;;;;;;;;5027141;28;20200;-80
2022/06/15 11:54:50;;;;;;;3.83;2.50;;;;;;;;;;5026651;28;20574;-79
2022/06/15 11:57:23;;;;;;;7.97;2.63;;;;;;;;;;5025329;28;20204;-80
2022/06/15 11:59:56;;;;;;;6.67;2.60;;;;;;;;;;5027549;28;20219;-79
2022/06/15 12:02:30;;;;;;;4.63;2.43;;;;;;;;;;5029512;28;20200;-80
2022/06/15 12:05:24;;;;;;;7.43;2.87;;;;;;;;;;5023500;28;20254;-80
2022/06/15 12:07:59;;;;;;;4.57;2.33;;;;;;;;;;4981160;28;20210;-80
2022/06/15 12:10:33;;;;;;;4.77;2.53;;;;;;;;;;5025498;28;20218;-80
2022/06/15 12:13:03;;;;;;;7.13;2.60;;;;;;;;;;5022384;28;20203;-79
2022/06/15 12:15:36;;;;;;;6.07;2.53;;;;;;;;;;5023385;28;20718;-80
2022/06/15 12:18:07;;;;;;;5.67;2.67;;;;;;;;;;5022425;28;20276;-80
2022/06/15 12:20:49;;;;;;;4.93;2.50;;;;;;;;;;5025339;28;20564;-80
2022/06/15 12:23:28;;;;;;;5.23;2.63;;;;;;;;;;5022282;28;20208;-79
2022/06/15 12:26:00;;;;;;;6.23;2.53;;;;;;;;;;5025329;28;20227;-80
2022/06/15 12:28:30;;;;;;;6.40;2.57;;;;;;;;;;5017670;28;20216;-80
2022/06/15 12:31:02;;;;;;;7.47;2.50;;;;;;;;;;5022486;28;20203;-81
2022/06/15 12:33:32;;;;;;;7.77;2.67;;;;;;;;;;5023134;28;20219;-80
2022/06/15 12:36:05;;;;;;;4.23;2.57;;;;;;;;;;5023932;28;20216;-80
2022/06/15 12:38:36;;;;;;;5.80;2.53;;;;;;;;;;5023041;28;20640;-80
2022/06/15 12:42:09;;;;;;;4.60;2.87;;;;;;;;;;5023129;28;20263;-81
2022/06/15 12:43:56;;;;;;;4.13;2.30;;;;;;;;;;5022320;28;20212;-81
2022/06/15 12:46:27;;;;;;;3.60;2.47;;;;;;;;;;5022910;28;20224;-79
2022/06/15 12:48:57;;;;;;;7.77;2.90;;;;;;;;;;5030371;28;20574;-80
2022/06/15 12:51:32;;;;;;;9.37;3.10;;;;;;;;;;5030378;28;20200;-80
2022/06/15 12:54:04;;;;;;;6.10;2.60;;;;;;;;;;5031192;28;20211;-80
2022/06/15 12:56:39;;;;;;;3.57;2.30;;;;;;;;;;5029758;28;20235;-81
2022/06/15 12:59:19;;;;;;;5.27;2.87;;;;;;;;;;5031290;28;20195;-81
2022/06/15 13:01:47;;;;;;;4.33;2.53;;;;;;;;;;5029603;28;20199;-81
2022/06/15 13:04:20;;;;;;;8.37;2.77;;;;;;;;;;5028678;28;20281;-81
2022/06/15 13:06:49;;;;;;;4.27;2.53;;;;;;;;;;5028558;28;20227;-79
2022/06/15 13:09:21;;;;;;;5.80;2.77;;;;;;;;;;5029908;28;20230;-80
2022/06/15 13:11:55;;;;;;;4.30;2.37;;;;;;;;;;5026513;28;20203;-80
2022/06/15 13:14:24;;;;;;;6.40;2.73;;;;;;;;;;5029250;28;20211;-81
2022/06/15 13:17:04;;;;;;;4.50;2.60;;;;;;;;;;5029792;28;20247;-81
2022/06/15 13:19:35;;;;;;;5.63;2.50;;;;;;;;;;5031536;28;20203;-81
2022/06/15 13:22:08;;;;;;;7.50;2.50;;;;;;;;;;5026133;28;20739;-81
2022/06/15 13:24:48;;;;;;;4.90;2.47;;;;;;;;;;5029354;28;20297;-81
2022/06/15 13:27:21;;;;;;;7.20;2.73;;;;;;;;;;5029466;28;20203;-82
2022/06/15 13:29:51;;;;;;;6.53;2.83;;;;;;;;;;5031700;28;20204;-81
2022/06/15 13:32:38;;;;;;;7.20;2.53;;;;;;;;;;5026662;28;20206;-81
2022/06/15 13:35:19;;;;;;;7.17;2.90;;;;;;;;;;5029630;28;20696;-80
2022/06/15 13:37:57;;;;;;;4.90;2.40;;;;;;;;;;5023760;28;20270;-80
2022/06/15 13:40:24;;;;;;;7.87;2.70;;;;;;;;;;5025589;28;20639;-81
2022/06/15 13:43:02;;;;;;;4.40;2.87;;;;;;;;;;5025256;28;20204;-81
2022/06/15 13:45:39;;;;;;;8.00;2.63;;;;;;;;;;5025235;28;20294;-80
2022/06/15 13:48:26;;;;;;;5.10;2.70;;;;;;;;;;5052344;22;20223;-85
2022/06/15 14:21:43;;;;;;;4.47;2.33;;;;;;;;;;4965024;28;20217;-85
2022/06/15 14:24:18;;;;;;;7.07;2.70;;;;;;;;;;4990875;28;20711;-85
2022/06/15 14:26:48;;;;;;;4.97;2.80;;;;;;;;;;5036724;28;20235;-84
2022/06/15 14:29:17;;;;;;;10.37;2.70;;;;;;;;;;5036297;28;20600;-85
2022/06/15 14:31:46;;;;;;;6.30;3.30;;;;;;;;;;5010616;28;20204;-84
2022/06/15 14:34:15;;;;;;;5.50;2.83;;;;;;;;;;5041354;28;20200;-85
2022/06/15 14:36:54;;;;;;;4.40;2.50;;;;;;;;;;5032243;28;20219;-84
2022/06/15 14:39:22;;;;;;;5.23;2.60;;;;;;;;;;5035801;28;20635;-82
2022/06/15 14:42:02;;;;;;;5.50;2.93;;;;;;;;;;5052876;28;20208;-84
2022/06/15 14:44:30;;;;;;;5.30;2.60;;;;;;;;;;5045874;28;20250;-84
2022/06/15 14:46:58;;;;;;;8.67;3.23;;;;;;;;;;5036154;28;20232;-84
2022/06/15 14:49:27;;;;;;;6.73;3.07;;;;;;;;;;5035645;28;20490;-85
2022/06/15 14:54:49;;;;;;;6.70;2.70;;;;;;;;;;5085526;27;20586;-80
2022/06/15 14:57:19;;;;;;;6.40;2.70;;;;;;;;;;5064949;28;20616;-79
2022/06/15 14:59:47;;;;;;;6.43;2.83;;;;;;;;;;5064345;28;20212;-79
2022/06/15 15:02:15;;;;;;;4.57;2.43;;;;;;;;;;5068612;28;20216;-78
2022/06/15 15:04:43;;;;;;;5.83;2.50;;;;;;;;;;5072193;28;20226;-78
2022/06/15 15:10:20;;;;;;;7.37;2.87;;;;;;;;;;5067852;28;20633;-78
2022/06/15 15:12:47;;;;;;;6.67;2.67;;;;;;;;;;5063608;28;20223;-79
2022/06/15 15:15:14;;;;;;;5.63;2.77;;;;;;;;;;5055022;28;20781;-78
2022/06/15 15:17:52;;;;;;;4.83;2.30;;;;;;;;;;5072785;28;20207;-79
2022/06/15 15:20:30;;;;;;;7.17;2.90;;;;;;;;;;5060601;28;20206;-79
2022/06/15 15:22:57;;;;;;;6.37;2.70;;;;;;;;;;5069186;28;20216;-78
2022/06/15 15:25:35;;;;;;;4.40;2.73;;;;;;;;;;5060274;28;20235;-80
2022/06/15 15:39:30;;;;;;;5.07;2.70;;;;;;;;;;5068528;28;20206;-77
2022/06/15 15:41:59;;;;;;;5.40;2.77;;;;;;;;;;5070807;28;20319;-78
2022/06/15 15:44:26;;;;;;;4.90;2.77;;;;;;;;;;5072950;28;20364;-78
2022/06/15 15:46:53;;;;;;;5.87;2.60;;;;;;;;;;5074902;28;20861;-77
2022/06/15 15:49:20;;;;;;;5.93;2.80;;;;;;;;;;5066006;28;20294;-77
2022/06/15 15:51:47;;;;;;;7.50;2.50;;;;;;;;;;5068007;28;20212;-78
2022/06/15 15:54:15;;;;;;;7.23;2.50;;;;;;;;;;5066982;28;20226;-78
2022/06/15 15:56:44;;;;;;;4.63;2.80;;;;;;;;;;5072364;28;20248;-79
2022/06/15 15:59:14;;;;;;;4.33;2.63;;;;;;;;;;5070004;28;20194;-78
2022/06/15 16:01:42;;;;;;;6.87;2.70;;;;;;;;;;5075907;28;20206;-78
2022/06/15 16:04:09;;;;;;;4.87;2.77;;;;;;;;;;5075757;28;20215;-78